KACT - Waco Rgnl, TX, US

Issued at 1326 UTC 20 Oct 2021
Updated at 1403 UTC 20 Oct 2021
Potential Impact None Slight Moderate High
Time1351Z 20/15Z 20/16Z 20/17Z 20/18Z 20/19Z 20/20Z 20/21Z 20/22Z 20/23Z 21/00Z 21/01Z 21/02Z 21/03Z>>
Type OBS PRVL PRVL PRVL PRVL PRVL PRVL PRVL PRVL PRVL PRVL PRVL PRVL PRVL
VIS 10 >6 >6 >6 >6 >6 >6 >6 >6 >6 >6 >6 >6 >6
CIG 35 -- -- -- -- -- -- -- -- -- -- -- -- --
Cover OVC SCT SCT SCT SCT SCT FEW FEW FEW FEW FEW FEW FEW FEW
FltCat VFR VFR VFR VFR VFR VFR VFR VFR VFR VFR VFR VFR VFR VFR
WX -- -- -- -- -- -- -- -- -- -- -- -- -- --
WDir VRB 190 190 190 190 190 190 190 190 190 190 190 190 190
WSpd 0 7 7 7 7 7 8 8 8 8 8 8 8 8
WGst -- -- -- -- -- -- -- -- -- -- -- -- -- --
Raw TAF
KACT 201326Z 2013/2112 16005KT P6SM SCT007 BKN025
  TEMPO 2013/2015 5SM BR BKN007
  FM201500 19007KT P6SM SCT025
  FM202000 19008KT P6SM FEW100
  FM210800 24003KT 5SM BR FEW120


Raw METAR
KACT 201351Z 00000KT 10SM SCT009 OVC035 21/19 A3011 RMK AO2 SLP190 T02060189
KACT 201251Z 17006KT 10SM FEW008 OVC031 20/18 A3009 RMK AO2 SLP183 T02000183
KACT 201242Z 18005KT 10SM SCT006 OVC031 20/18 A3009 RMK AO2 T02000183
KACT 201206Z 20008KT 10SM BKN007 BKN033 19/18 A3008 RMK AO2 CIG 006V010 T01940178
KACT 201151Z 20006KT 10SM FEW009 BKN033 19/18 A3008 RMK AO2 SLP180 T01890178 10211 20189 51003
KACT 201146Z 20006KT 10SM FEW009 BKN033 19/18 A3008 RMK AO2

METAR Board
Radar Display
Forecast Discussion
For situational awareness. Not to be used for flight planning purposes.